createdAt,value
2023-03-10T02:08:21.924Z,11.20
2023-03-10T02:10:51.703Z,10.53
2023-03-10T02:13:20.189Z,10.73
2023-03-10T02:15:51.588Z,11.13
2023-03-10T02:18:21.463Z,10.40
2023-03-10T02:20:56.933Z,10.00
2023-03-10T02:23:33.176Z,9.23
2023-03-10T02:26:11.443Z,9.83
2023-03-10T02:28:40.877Z,9.03
2023-03-10T02:31:11.323Z,9.67
2023-03-10T02:33:40.147Z,9.60
2023-03-10T02:36:24.388Z,9.20
2023-03-10T02:38:53.033Z,9.27
2023-03-10T02:41:25.628Z,9.70
2023-03-10T02:43:59.771Z,9.63
2023-03-10T02:46:30.054Z,10.00
2023-03-10T02:49:03.632Z,9.90
2023-03-10T02:51:35.150Z,9.23
2023-03-10T05:15:04.374Z,10.70
2023-03-10T05:23:56.634Z,12.63
2023-03-10T05:26:35.064Z,12.10
2023-03-10T05:29:04.509Z,12.00
2023-03-10T05:31:35.460Z,12.87
2023-03-10T05:34:10.090Z,13.83
2023-03-10T05:36:38.505Z,13.97
2023-03-10T05:41:40.398Z,12.73
2023-03-10T05:44:08.544Z,13.07
2023-03-10T05:46:38.081Z,12.77
2023-03-10T05:49:06.210Z,12.33
2023-03-10T05:51:34.433Z,12.30
2023-03-10T05:54:02.668Z,12.53
2023-03-10T05:56:30.939Z,12.80
2023-03-10T05:58:58.991Z,11.17
2023-03-10T06:01:27.083Z,13.13
2023-03-10T06:03:56.581Z,12.73
2023-03-10T06:06:24.751Z,10.80
2023-03-10T06:08:53.012Z,11.30
2023-03-10T06:11:21.213Z,12.40
2023-03-10T06:13:49.252Z,12.83
2023-03-10T06:16:18.657Z,13.20
2023-03-10T06:18:46.739Z,10.53
2023-03-10T06:21:16.469Z,14.00
2023-03-10T06:23:44.438Z,12.30
2023-03-10T06:26:15.522Z,12.10
2023-03-10T06:28:46.083Z,11.77
2023-03-10T06:31:16.872Z,11.77
2023-03-10T06:33:45.433Z,11.87
2023-03-10T06:36:16.117Z,11.47
2023-03-10T06:38:44.503Z,11.47
2023-03-10T06:41:14.419Z,12.07
2023-03-10T06:43:42.899Z,11.23
2023-03-10T06:46:14.057Z,11.87
2023-03-10T06:48:43.731Z,11.80
2023-03-10T06:51:18.265Z,12.63
2023-03-10T06:53:46.801Z,12.50
2023-03-10T06:56:16.926Z,9.90
2023-03-10T06:58:46.130Z,11.80
2023-03-10T07:01:26.113Z,14.03
2023-03-10T07:03:55.716Z,12.03
2023-03-10T07:06:28.274Z,12.00
2023-03-10T07:08:57.044Z,10.77
2023-03-10T07:11:33.476Z,11.60
2023-03-10T07:14:10.777Z,11.93
2023-03-10T07:16:54.886Z,11.97
2023-03-10T07:26:21.555Z,13.67
2023-03-10T07:32:00.436Z,13.00
2023-03-10T07:41:49.645Z,13.50
2023-03-10T07:45:12.390Z,13.57
2023-03-10T08:10:50.430Z,12.90
2023-03-10T08:13:29.188Z,14.67
2023-03-10T08:35:48.219Z,12.20
2023-03-10T08:38:26.905Z,12.70
2023-03-10T08:40:55.181Z,13.43
2023-03-10T08:43:29.554Z,11.70
2023-03-10T08:49:48.915Z,11.10
2023-03-10T08:52:33.664Z,11.67
2023-03-10T08:55:16.275Z,11.70
2023-03-10T08:57:56.536Z,11.80
2023-03-10T09:00:57.286Z,11.03
2023-03-10T09:04:04.816Z,11.53
2023-03-10T09:06:55.815Z,11.53
2023-03-10T09:16:30.572Z,10.17
2023-03-10T09:23:52.389Z,11.10
2023-03-10T09:35:16.610Z,12.33
2023-03-10T09:37:48.630Z,10.80
2023-03-10T09:40:31.242Z,11.50
2023-03-10T09:43:18.622Z,11.73
2023-03-10T09:46:51.794Z,11.07
2023-03-10T10:11:04.572Z,10.80
2023-03-10T10:13:42.528Z,10.63
2023-03-10T10:16:34.571Z,11.37
2023-03-10T10:19:13.775Z,10.80
2023-03-10T10:21:49.787Z,11.17
2023-03-10T10:24:23.591Z,10.40
2023-03-10T10:26:55.696Z,11.40
2023-03-10T10:29:36.646Z,10.57
2023-03-10T10:32:18.482Z,11.30
2023-03-10T11:00:42.582Z,12.07
2023-03-10T11:03:28.118Z,11.30
2023-03-10T11:06:34.742Z,11.10
2023-03-10T11:09:29.713Z,11.70
2023-03-10T12:30:41.511Z,11.00
2023-03-10T12:33:47.154Z,13.70
2023-03-10T12:36:43.413Z,12.27
2023-03-10T12:39:42.865Z,13.17
2023-03-10T12:42:32.546Z,12.80
2023-03-10T12:45:24.145Z,13.57
2023-03-10T12:48:11.463Z,13.57
2023-03-10T12:50:47.384Z,13.80
2023-03-10T12:53:36.828Z,14.07
2023-03-10T12:56:19.487Z,13.80
2023-03-10T12:58:55.785Z,13.37
2023-03-10T13:01:31.963Z,13.07
2023-03-10T13:04:00.424Z,14.47
2023-03-10T13:06:35.123Z,14.27
2023-03-10T13:09:20.018Z,13.83
2023-03-10T13:12:02.088Z,15.83
2023-03-10T13:14:39.023Z,15.87
2023-03-10T13:17:21.882Z,13.43
2023-03-10T13:20:06.003Z,17.13
2023-03-10T13:22:38.063Z,17.43
2023-03-10T13:25:09.983Z,14.43
2023-03-10T13:27:40.671Z,15.83
2023-03-10T13:30:28.463Z,14.63
2023-03-10T13:33:07.025Z,13.80
2023-03-10T13:35:44.189Z,14.57
2023-03-10T13:38:22.131Z,15.03
2023-03-10T13:41:03.500Z,15.63
2023-03-10T13:43:49.191Z,15.90
2023-03-10T13:46:29.800Z,15.47
2023-03-10T13:49:11.630Z,14.37
2023-03-10T13:51:48.358Z,16.07
2023-03-10T13:54:23.047Z,17.20
2023-03-10T13:56:57.377Z,15.33
2023-03-10T13:59:38.410Z,15.80
2023-03-10T14:02:22.765Z,15.80
2023-03-10T14:04:59.256Z,14.77
2023-03-10T14:07:38.683Z,15.90
2023-03-10T14:10:25.261Z,17.20
2023-03-10T14:13:06.297Z,19.33
2023-03-10T14:16:03.754Z,17.80
2023-03-10T14:18:45.493Z,17.83
2023-03-10T14:21:58.523Z,17.43
2023-03-10T14:24:41.448Z,20.53
2023-03-10T14:27:14.976Z,19.10
2023-03-10T14:32:58.831Z,19.40
2023-03-10T16:05:56.366Z,13.20
2023-03-10T16:20:09.184Z,16.60
2023-03-10T16:22:56.233Z,12.47
2023-03-10T16:25:37.378Z,12.63
2023-03-10T16:28:27.033Z,11.63
2023-03-10T16:31:01.312Z,11.40
2023-03-10T16:33:33.768Z,12.90
2023-03-10T16:36:14.242Z,11.60
2023-03-10T16:38:47.141Z,11.13
2023-03-10T16:41:24.811Z,11.50
2023-03-10T16:43:59.738Z,11.97
2023-03-10T16:46:31.013Z,12.43
2023-03-10T16:49:03.464Z,10.83
2023-03-10T16:51:41.932Z,11.50
2023-03-10T16:54:14.799Z,10.70
2023-03-10T16:56:50.716Z,12.03
2023-03-10T16:59:30.885Z,24.37
2023-03-10T17:02:08.036Z,15.77
2023-03-10T17:04:36.243Z,14.87
2023-03-10T17:07:14.351Z,18.10
2023-03-10T17:09:53.041Z,16.80
2023-03-10T17:12:21.452Z,12.93
2023-03-10T17:14:57.848Z,12.03
2023-03-10T17:17:25.930Z,16.03
2023-03-10T17:19:56.015Z,14.57
2023-03-10T17:22:27.566Z,12.80
2023-03-10T17:25:19.700Z,13.07
2023-03-10T17:33:47.200Z,13.57
2023-03-10T19:45:03.808Z,8.77
2023-03-10T19:47:45.999Z,9.00
2023-03-10T19:50:20.555Z,8.90
2023-03-10T19:52:50.436Z,9.53
2023-03-10T19:55:26.790Z,11.20
2023-03-10T19:58:09.248Z,11.13
2023-03-10T20:00:55.712Z,10.50
2023-03-10T20:03:49.500Z,11.60
2023-03-10T20:09:34.454Z,8.73
2023-03-10T20:12:39.032Z,8.27
2023-03-10T20:17:19.242Z,7.97
2023-03-10T21:05:17.783Z,6.87
2023-03-10T21:07:59.343Z,6.80
2023-03-10T21:10:35.295Z,7.30
2023-03-10T21:13:04.110Z,6.77
2023-03-10T21:15:35.001Z,6.10
2023-03-10T21:18:03.223Z,6.80
2023-03-10T21:20:37.875Z,6.83
2023-03-10T21:23:07.575Z,6.93
2023-03-10T21:25:43.316Z,7.40
2023-03-10T21:28:13.624Z,7.30
2023-03-10T21:30:42.366Z,7.03
2023-03-10T21:33:10.862Z,7.60
2023-03-10T21:35:43.590Z,7.13
2023-03-10T21:38:14.511Z,7.37
2023-03-10T21:40:47.527Z,6.30
2023-03-10T21:43:36.209Z,6.93
2023-03-10T21:46:12.335Z,6.40
2023-03-10T21:48:49.853Z,5.97
2023-03-10T21:51:26.050Z,5.10
2023-03-10T21:53:56.367Z,6.10
2023-03-10T21:56:54.708Z,6.17
2023-03-10T22:06:44.112Z,5.50
2023-03-10T22:09:39.153Z,5.53
2023-03-10T22:12:07.719Z,4.90
2023-03-10T22:14:46.224Z,3.80
2023-03-10T22:17:19.739Z,3.07
2023-03-10T22:19:59.881Z,2.40
2023-03-10T22:22:42.360Z,2.10
2023-03-10T22:25:27.165Z,1.70
2023-03-10T22:28:10.246Z,1.77
2023-03-10T22:31:05.662Z,1.70
2023-03-10T22:33:50.982Z,1.87
2023-03-10T22:36:28.915Z,1.37
2023-03-10T22:39:07.704Z,3.07
2023-03-10T22:41:53.434Z,1.00
2023-03-10T22:44:50.576Z,1.20
2023-03-10T22:47:35.432Z,2.53
2023-03-10T22:50:18.522Z,1.50
2023-03-10T22:53:04.506Z,1.33
2023-03-10T22:55:36.266Z,1.37
2023-03-10T22:58:09.937Z,1.40
2023-03-10T23:00:51.402Z,2.30
2023-03-10T23:06:49.532Z,2.13
2023-03-10T23:09:33.633Z,3.60
2023-03-10T23:12:31.366Z,1.80
2023-03-10T23:15:25.251Z,1.80
2023-03-10T23:18:00.986Z,3.53
2023-03-10T23:20:39.044Z,1.37
2023-03-10T23:23:36.042Z,3.53
2023-03-10T23:26:31.786Z,3.13
2023-03-10T23:29:22.635Z,1.70
2023-03-10T23:32:00.068Z,1.93
2023-03-10T23:34:46.653Z,6.47
2023-03-10T23:37:16.277Z,4.63
2023-03-10T23:39:50.907Z,2.17
2023-03-10T23:42:21.575Z,2.00
2023-03-10T23:44:50.471Z,3.30
2023-03-10T23:47:22.865Z,1.50
2023-03-10T23:56:47.231Z,2.43
2023-03-10T23:59:17.573Z,1.60
